sensor_id;sensor_type;location;lat;lon;timestamp;P1;durP1;ratioP1;P2;durP2;ratioP2
76801;SDS011;66403;50.832;10.950;2024-01-15T00:02:48;8.40;;;2.80;;
76801;SDS011;66403;50.832;10.950;2024-01-15T00:07:49;9.38;;;4.68;;
76801;SDS011;66403;50.832;10.950;2024-01-15T00:12:49;4.90;;;2.63;;
76801;SDS011;66403;50.832;10.950;2024-01-15T00:17:50;7.47;;;3.53;;
76801;SDS011;66403;50.832;10.950;2024-01-15T00:22:50;8.85;;;3.80;;
76801;SDS011;66403;50.832;10.950;2024-01-15T00:27:51;4.60;;;2.45;;
76801;SDS011;66403;50.832;10.950;2024-01-15T00:32:51;7.05;;;3.15;;
76801;SDS011;66403;50.832;10.950;2024-01-15T00:37:52;4.20;;;3.10;;
76801;SDS011;66403;50.832;10.950;2024-01-15T00:42:52;6.75;;;3.67;;
76801;SDS011;66403;50.832;10.950;2024-01-15T00:47:53;6.82;;;2.78;;
76801;SDS011;66403;50.832;10.950;2024-01-15T00:52:53;5.93;;;3.40;;
76801;SDS011;66403;50.832;10.950;2024-01-15T00:57:53;5.82;;;2.45;;
76801;SDS011;66403;50.832;10.950;2024-01-15T01:02:54;5.70;;;3.05;;
76801;SDS011;66403;50.832;10.950;2024-01-15T01:07:54;6.07;;;3.08;;
76801;SDS011;66403;50.832;10.950;2024-01-15T01:12:55;6.15;;;3.15;;
76801;SDS011;66403;50.832;10.950;2024-01-15T01:17:55;6.35;;;3.05;;
76801;SDS011;66403;50.832;10.950;2024-01-15T01:22:56;5.55;;;3.45;;
76801;SDS011;66403;50.832;10.950;2024-01-15T01:27:56;3.00;;;2.33;;
76801;SDS011;66403;50.832;10.950;2024-01-15T01:32:57;4.88;;;2.60;;
76801;SDS011;66403;50.832;10.950;2024-01-15T01:37:57;7.65;;;3.63;;
76801;SDS011;66403;50.832;10.950;2024-01-15T01:42:58;7.10;;;3.90;;
76801;SDS011;66403;50.832;10.950;2024-01-15T01:47:58;5.68;;;2.63;;
76801;SDS011;66403;50.832;10.950;2024-01-15T01:53:00;6.88;;;2.70;;
76801;SDS011;66403;50.832;10.950;2024-01-15T01:58:02;4.88;;;2.17;;
76801;SDS011;66403;50.832;10.950;2024-01-15T02:03:03;5.32;;;2.78;;
76801;SDS011;66403;50.832;10.950;2024-01-15T02:08:04;5.53;;;3.00;;
76801;SDS011;66403;50.832;10.950;2024-01-15T02:13:04;8.13;;;3.50;;
76801;SDS011;66403;50.832;10.950;2024-01-15T02:18:05;6.95;;;2.97;;
76801;SDS011;66403;50.832;10.950;2024-01-15T02:23:10;6.25;;;3.42;;
76801;SDS011;66403;50.832;10.950;2024-01-15T02:28:13;6.97;;;3.65;;
76801;SDS011;66403;50.832;10.950;2024-01-15T02:33:17;6.07;;;3.20;;
76801;SDS011;66403;50.832;10.950;2024-01-15T02:38:17;3.22;;;1.67;;
76801;SDS011;66403;50.832;10.950;2024-01-15T02:43:18;6.75;;;2.92;;
76801;SDS011;66403;50.832;10.950;2024-01-15T02:48:19;5.53;;;3.33;;
76801;SDS011;66403;50.832;10.950;2024-01-15T02:53:19;6.38;;;3.25;;
76801;SDS011;66403;50.832;10.950;2024-01-15T02:58:20;6.72;;;3.95;;
76801;SDS011;66403;50.832;10.950;2024-01-15T03:03:21;7.13;;;3.50;;
76801;SDS011;66403;50.832;10.950;2024-01-15T03:08:21;7.03;;;3.88;;
76801;SDS011;66403;50.832;10.950;2024-01-15T03:13:22;9.60;;;3.78;;
76801;SDS011;66403;50.832;10.950;2024-01-15T03:18:23;4.75;;;2.35;;
76801;SDS011;66403;50.832;10.950;2024-01-15T03:23:23;6.95;;;2.95;;
76801;SDS011;66403;50.832;10.950;2024-01-15T03:28:24;5.10;;;3.22;;
76801;SDS011;66403;50.832;10.950;2024-01-15T03:33:24;5.53;;;2.67;;
76801;SDS011;66403;50.832;10.950;2024-01-15T03:38:26;8.88;;;3.95;;
76801;SDS011;66403;50.832;10.950;2024-01-15T03:43:28;3.63;;;2.10;;
76801;SDS011;66403;50.832;10.950;2024-01-15T03:48:28;3.67;;;2.30;;
76801;SDS011;66403;50.832;10.950;2024-01-15T03:53:29;5.45;;;3.13;;
76801;SDS011;66403;50.832;10.950;2024-01-15T03:58:29;5.50;;;2.80;;
76801;SDS011;66403;50.832;10.950;2024-01-15T04:03:29;3.45;;;1.83;;
76801;SDS011;66403;50.832;10.950;2024-01-15T04:08:30;3.65;;;2.33;;
76801;SDS011;66403;50.832;10.950;2024-01-15T04:13:34;7.50;;;3.40;;
76801;SDS011;66403;50.832;10.950;2024-01-15T04:18:34;3.88;;;2.20;;
76801;SDS011;66403;50.832;10.950;2024-01-15T04:23:34;4.68;;;2.67;;
76801;SDS011;66403;50.832;10.950;2024-01-15T04:28:35;8.73;;;2.95;;
76801;SDS011;66403;50.832;10.950;2024-01-15T04:33:35;6.90;;;3.30;;
76801;SDS011;66403;50.832;10.950;2024-01-15T04:38:36;8.18;;;3.15;;
76801;SDS011;66403;50.832;10.950;2024-01-15T04:43:38;5.75;;;2.55;;
76801;SDS011;66403;50.832;10.950;2024-01-15T04:48:38;3.80;;;2.47;;
76801;SDS011;66403;50.832;10.950;2024-01-15T04:53:39;9.07;;;3.22;;
76801;SDS011;66403;50.832;10.950;2024-01-15T04:58:39;5.22;;;3.00;;
76801;SDS011;66403;50.832;10.950;2024-01-15T05:03:39;4.95;;;2.85;;
76801;SDS011;66403;50.832;10.950;2024-01-15T05:08:40;4.43;;;2.47;;
76801;SDS011;66403;50.832;10.950;2024-01-15T05:13:40;7.07;;;3.13;;
76801;SDS011;66403;50.832;10.950;2024-01-15T05:18:41;7.30;;;3.38;;
76801;SDS011;66403;50.832;10.950;2024-01-15T05:23:43;4.90;;;2.97;;
76801;SDS011;66403;50.832;10.950;2024-01-15T05:28:43;5.32;;;3.10;;
76801;SDS011;66403;50.832;10.950;2024-01-15T05:33:43;4.82;;;2.67;;
76801;SDS011;66403;50.832;10.950;2024-01-15T05:38:44;5.43;;;1.80;;
76801;SDS011;66403;50.832;10.950;2024-01-15T05:43:44;4.60;;;2.90;;
76801;SDS011;66403;50.832;10.950;2024-01-15T05:48:45;6.15;;;2.25;;
76801;SDS011;66403;50.832;10.950;2024-01-15T05:53:45;4.20;;;2.30;;
76801;SDS011;66403;50.832;10.950;2024-01-15T05:58:46;4.85;;;3.05;;
76801;SDS011;66403;50.832;10.950;2024-01-15T06:03:46;3.72;;;1.88;;
76801;SDS011;66403;50.832;10.950;2024-01-15T06:08:47;2.67;;;1.63;;
76801;SDS011;66403;50.832;10.950;2024-01-15T06:13:47;5.95;;;2.53;;
76801;SDS011;66403;50.832;10.950;2024-01-15T06:18:48;3.95;;;2.25;;
76801;SDS011;66403;50.832;10.950;2024-01-15T06:23:48;3.38;;;1.30;;
76801;SDS011;66403;50.832;10.950;2024-01-15T06:28:49;4.25;;;1.83;;
76801;SDS011;66403;50.832;10.950;2024-01-15T06:33:50;3.22;;;1.75;;
76801;SDS011;66403;50.832;10.950;2024-01-15T06:38:50;3.83;;;0.95;;
76801;SDS011;66403;50.832;10.950;2024-01-15T06:43:51;3.95;;;2.08;;
76801;SDS011;66403;50.832;10.950;2024-01-15T06:48:51;1.55;;;1.20;;
76801;SDS011;66403;50.832;10.950;2024-01-15T06:53:52;3.45;;;1.67;;
76801;SDS011;66403;50.832;10.950;2024-01-15T06:58:52;3.60;;;2.30;;
76801;SDS011;66403;50.832;10.950;2024-01-15T07:03:53;1.95;;;1.42;;
76801;SDS011;66403;50.832;10.950;2024-01-15T07:08:53;5.35;;;1.98;;
76801;SDS011;66403;50.832;10.950;2024-01-15T07:13:54;3.30;;;2.10;;
76801;SDS011;66403;50.832;10.950;2024-01-15T07:18:54;4.88;;;1.65;;
76801;SDS011;66403;50.832;10.950;2024-01-15T07:23:55;2.90;;;2.00;;
76801;SDS011;66403;50.832;10.950;2024-01-15T07:28:55;2.47;;;1.50;;
76801;SDS011;66403;50.832;10.950;2024-01-15T07:33:56;4.45;;;2.17;;
76801;SDS011;66403;50.832;10.950;2024-01-15T07:38:57;2.42;;;1.20;;
76801;SDS011;66403;50.832;10.950;2024-01-15T07:43:57;1.95;;;1.58;;
76801;SDS011;66403;50.832;10.950;2024-01-15T07:48:58;3.30;;;2.00;;
76801;SDS011;66403;50.832;10.950;2024-01-15T07:53:58;2.58;;;1.70;;
76801;SDS011;66403;50.832;10.950;2024-01-15T07:58:59;2.38;;;1.90;;
76801;SDS011;66403;50.832;10.950;2024-01-15T08:03:59;5.40;;;2.22;;
76801;SDS011;66403;50.832;10.950;2024-01-15T08:09:01;3.47;;;2.28;;
76801;SDS011;66403;50.832;10.950;2024-01-15T08:14:02;4.88;;;1.75;;
76801;SDS011;66403;50.832;10.950;2024-01-15T08:19:02;4.38;;;1.67;;
76801;SDS011;66403;50.832;10.950;2024-01-15T08:24:03;4.28;;;2.63;;
76801;SDS011;66403;50.832;10.950;2024-01-15T08:29:03;3.78;;;1.67;;
76801;SDS011;66403;50.832;10.950;2024-01-15T08:34:04;6.22;;;3.35;;
76801;SDS011;66403;50.832;10.950;2024-01-15T08:39:05;11.35;;;2.85;;
76801;SDS011;66403;50.832;10.950;2024-01-15T08:44:05;3.30;;;2.10;;
76801;SDS011;66403;50.832;10.950;2024-01-15T08:49:05;6.07;;;2.28;;
76801;SDS011;66403;50.832;10.950;2024-01-15T08:54:06;6.90;;;2.28;;
76801;SDS011;66403;50.832;10.950;2024-01-15T08:59:08;5.97;;;3.28;;
76801;SDS011;66403;50.832;10.950;2024-01-15T09:04:09;4.70;;;2.58;;
76801;SDS011;66403;50.832;10.950;2024-01-15T09:09:09;2.42;;;1.83;;
76801;SDS011;66403;50.832;10.950;2024-01-15T09:14:10;3.00;;;1.67;;
76801;SDS011;66403;50.832;10.950;2024-01-15T09:19:10;4.50;;;2.15;;
76801;SDS011;66403;50.832;10.950;2024-01-15T09:24:11;5.13;;;1.90;;
76801;SDS011;66403;50.832;10.950;2024-01-15T09:29:12;4.25;;;1.70;;
76801;SDS011;66403;50.832;10.950;2024-01-15T09:34:13;6.93;;;2.33;;
76801;SDS011;66403;50.832;10.950;2024-01-15T09:39:14;3.88;;;2.38;;
76801;SDS011;66403;50.832;10.950;2024-01-15T09:44:15;2.97;;;2.17;;
76801;SDS011;66403;50.832;10.950;2024-01-15T09:49:16;5.18;;;2.40;;
76801;SDS011;66403;50.832;10.950;2024-01-15T09:54:17;4.80;;;2.53;;
76801;SDS011;66403;50.832;10.950;2024-01-15T09:59:18;5.22;;;2.45;;
76801;SDS011;66403;50.832;10.950;2024-01-15T10:04:19;2.15;;;1.50;;
76801;SDS011;66403;50.832;10.950;2024-01-15T10:09:19;3.92;;;2.22;;
76801;SDS011;66403;50.832;10.950;2024-01-15T10:14:20;5.20;;;2.40;;
76801;SDS011;66403;50.832;10.950;2024-01-15T10:19:20;6.13;;;2.20;;
76801;SDS011;66403;50.832;10.950;2024-01-15T10:24:21;4.05;;;1.48;;
76801;SDS011;66403;50.832;10.950;2024-01-15T10:29:21;3.13;;;2.08;;
76801;SDS011;66403;50.832;10.950;2024-01-15T10:34:22;4.75;;;1.70;;
76801;SDS011;66403;50.832;10.950;2024-01-15T10:39:22;6.00;;;2.33;;
76801;SDS011;66403;50.832;10.950;2024-01-15T10:44:23;4.50;;;2.97;;
76801;SDS011;66403;50.832;10.950;2024-01-15T10:49:25;4.18;;;2.22;;
76801;SDS011;66403;50.832;10.950;2024-01-15T10:54:29;5.20;;;2.17;;
76801;SDS011;66403;50.832;10.950;2024-01-15T10:59:30;4.82;;;2.22;;
76801;SDS011;66403;50.832;10.950;2024-01-15T11:04:31;5.05;;;2.22;;
76801;SDS011;66403;50.832;10.950;2024-01-15T11:09:32;3.17;;;1.48;;
76801;SDS011;66403;50.832;10.950;2024-01-15T11:14:45;5.60;;;2.35;;
76801;SDS011;66403;50.832;10.950;2024-01-15T11:19:48;4.20;;;1.75;;
76801;SDS011;66403;50.832;10.950;2024-01-15T11:24:51;6.60;;;2.28;;
76801;SDS011;66403;50.832;10.950;2024-01-15T11:30:02;3.00;;;1.75;;
76801;SDS011;66403;50.832;10.950;2024-01-15T11:35:05;2.85;;;1.80;;
76801;SDS011;66403;50.832;10.950;2024-01-15T11:40:09;3.83;;;2.03;;
76801;SDS011;66403;50.832;10.950;2024-01-15T11:45:12;3.90;;;2.80;;
76801;SDS011;66403;50.832;10.950;2024-01-15T11:50:13;2.90;;;1.90;;
76801;SDS011;66403;50.832;10.950;2024-01-15T11:55:28;3.50;;;2.10;;
76801;SDS011;66403;50.832;10.950;2024-01-15T12:00:31;4.63;;;1.90;;
76801;SDS011;66403;50.832;10.950;2024-01-15T12:05:33;3.42;;;1.65;;
76801;SDS011;66403;50.832;10.950;2024-01-15T12:10:33;4.88;;;2.08;;
76801;SDS011;66403;50.832;10.950;2024-01-15T12:15:34;5.25;;;2.38;;
76801;SDS011;66403;50.832;10.950;2024-01-15T12:20:35;3.00;;;1.60;;
76801;SDS011;66403;50.832;10.950;2024-01-15T12:25:36;2.60;;;2.20;;
76801;SDS011;66403;50.832;10.950;2024-01-15T12:30:38;4.00;;;1.63;;
76801;SDS011;66403;50.832;10.950;2024-01-15T12:35:39;2.63;;;1.63;;
76801;SDS011;66403;50.832;10.950;2024-01-15T12:40:40;3.80;;;1.83;;
76801;SDS011;66403;50.832;10.950;2024-01-15T12:45:40;3.42;;;1.55;;
76801;SDS011;66403;50.832;10.950;2024-01-15T12:50:42;4.80;;;2.13;;
76801;SDS011;66403;50.832;10.950;2024-01-15T12:55:43;4.18;;;1.75;;
76801;SDS011;66403;50.832;10.950;2024-01-15T13:00:43;4.15;;;2.00;;
76801;SDS011;66403;50.832;10.950;2024-01-15T13:05:44;2.45;;;2.17;;
76801;SDS011;66403;50.832;10.950;2024-01-15T13:10:45;2.70;;;1.95;;
76801;SDS011;66403;50.832;10.950;2024-01-15T13:15:45;6.13;;;2.55;;
76801;SDS011;66403;50.832;10.950;2024-01-15T13:20:46;3.55;;;2.08;;
76801;SDS011;66403;50.832;10.950;2024-01-15T13:25:46;4.57;;;2.45;;
76801;SDS011;66403;50.832;10.950;2024-01-15T13:30:47;5.07;;;2.10;;
76801;SDS011;66403;50.832;10.950;2024-01-15T13:35:48;4.38;;;1.95;;
76801;SDS011;66403;50.832;10.950;2024-01-15T13:40:51;3.25;;;1.90;;
76801;SDS011;66403;50.832;10.950;2024-01-15T13:45:52;3.75;;;2.42;;
76801;SDS011;66403;50.832;10.950;2024-01-15T13:50:54;3.67;;;1.95;;
76801;SDS011;66403;50.832;10.950;2024-01-15T13:55:54;2.85;;;1.83;;
76801;SDS011;66403;50.832;10.950;2024-01-15T14:00:57;2.63;;;2.10;;
76801;SDS011;66403;50.832;10.950;2024-01-15T14:05:58;4.50;;;2.22;;
76801;SDS011;66403;50.832;10.950;2024-01-15T14:10:58;3.78;;;2.35;;
76801;SDS011;66403;50.832;10.950;2024-01-15T14:15:59;3.40;;;2.13;;
76801;SDS011;66403;50.832;10.950;2024-01-15T14:21:00;6.25;;;2.72;;
76801;SDS011;66403;50.832;10.950;2024-01-15T14:26:00;4.55;;;2.47;;
76801;SDS011;66403;50.832;10.950;2024-01-15T14:31:01;6.53;;;2.05;;
76801;SDS011;66403;50.832;10.950;2024-01-15T14:36:02;2.97;;;1.83;;
76801;SDS011;66403;50.832;10.950;2024-01-15T14:41:02;3.00;;;2.20;;
76801;SDS011;66403;50.832;10.950;2024-01-15T14:46:04;2.72;;;2.03;;
76801;SDS011;66403;50.832;10.950;2024-01-15T14:51:05;3.45;;;1.70;;
76801;SDS011;66403;50.832;10.950;2024-01-15T14:56:06;2.42;;;2.22;;
76801;SDS011;66403;50.832;10.950;2024-01-15T15:01:08;3.58;;;1.33;;
76801;SDS011;66403;50.832;10.950;2024-01-15T15:06:08;1.83;;;1.42;;
76801;SDS011;66403;50.832;10.950;2024-01-15T15:11:09;1.85;;;1.20;;
76801;SDS011;66403;50.832;10.950;2024-01-15T15:16:11;4.13;;;1.60;;
76801;SDS011;66403;50.832;10.950;2024-01-15T15:21:12;2.22;;;1.33;;
76801;SDS011;66403;50.832;10.950;2024-01-15T15:26:13;2.30;;;1.38;;
76801;SDS011;66403;50.832;10.950;2024-01-15T15:31:13;2.97;;;2.08;;
76801;SDS011;66403;50.832;10.950;2024-01-15T15:36:14;1.92;;;1.33;;
76801;SDS011;66403;50.832;10.950;2024-01-15T15:41:14;3.25;;;1.10;;
76801;SDS011;66403;50.832;10.950;2024-01-15T15:46:15;3.88;;;1.60;;
76801;SDS011;66403;50.832;10.950;2024-01-15T15:51:15;5.78;;;2.08;;
76801;SDS011;66403;50.832;10.950;2024-01-15T15:56:17;3.42;;;1.85;;
76801;SDS011;66403;50.832;10.950;2024-01-15T16:01:17;3.25;;;1.48;;
76801;SDS011;66403;50.832;10.950;2024-01-15T16:06:18;3.20;;;1.45;;
76801;SDS011;66403;50.832;10.950;2024-01-15T16:11:18;3.63;;;1.45;;
76801;SDS011;66403;50.832;10.950;2024-01-15T16:16:19;1.73;;;1.60;;
76801;SDS011;66403;50.832;10.950;2024-01-15T16:21:20;2.83;;;1.33;;
76801;SDS011;66403;50.832;10.950;2024-01-15T16:26:20;2.97;;;1.23;;
76801;SDS011;66403;50.832;10.950;2024-01-15T16:31:21;1.55;;;0.90;;
76801;SDS011;66403;50.832;10.950;2024-01-15T16:36:22;4.05;;;1.40;;
76801;SDS011;66403;50.832;10.950;2024-01-15T16:41:22;1.95;;;0.95;;
76801;SDS011;66403;50.832;10.950;2024-01-15T16:46:23;1.33;;;1.05;;
76801;SDS011;66403;50.832;10.950;2024-01-15T16:51:23;1.73;;;0.95;;
76801;SDS011;66403;50.832;10.950;2024-01-15T16:56:24;4.45;;;1.52;;
76801;SDS011;66403;50.832;10.950;2024-01-15T17:01:24;2.22;;;1.35;;
76801;SDS011;66403;50.832;10.950;2024-01-15T17:06:25;2.55;;;1.30;;
76801;SDS011;66403;50.832;10.950;2024-01-15T17:11:25;2.97;;;1.40;;
76801;SDS011;66403;50.832;10.950;2024-01-15T17:16:26;3.15;;;1.63;;
76801;SDS011;66403;50.832;10.950;2024-01-15T17:21:26;3.05;;;1.65;;
76801;SDS011;66403;50.832;10.950;2024-01-15T17:26:26;3.15;;;1.10;;
76801;SDS011;66403;50.832;10.950;2024-01-15T17:31:27;3.08;;;1.67;;
76801;SDS011;66403;50.832;10.950;2024-01-15T17:36:28;1.70;;;1.33;;
76801;SDS011;66403;50.832;10.950;2024-01-15T17:41:29;3.75;;;1.13;;
76801;SDS011;66403;50.832;10.950;2024-01-15T17:46:29;2.38;;;1.17;;
76801;SDS011;66403;50.832;10.950;2024-01-15T17:51:30;1.13;;;1.05;;
76801;SDS011;66403;50.832;10.950;2024-01-15T17:56:31;2.10;;;1.48;;
76801;SDS011;66403;50.832;10.950;2024-01-15T18:01:32;0.95;;;0.75;;
76801;SDS011;66403;50.832;10.950;2024-01-15T18:06:32;2.13;;;1.10;;
76801;SDS011;66403;50.832;10.950;2024-01-15T18:11:34;1.90;;;0.63;;
76801;SDS011;66403;50.832;10.950;2024-01-15T18:16:36;1.35;;;1.25;;
76801;SDS011;66403;50.832;10.950;2024-01-15T18:21:37;1.23;;;0.90;;
76801;SDS011;66403;50.832;10.950;2024-01-15T18:26:38;1.35;;;1.10;;
76801;SDS011;66403;50.832;10.950;2024-01-15T18:31:40;1.35;;;1.08;;
76801;SDS011;66403;50.832;10.950;2024-01-15T18:36:40;2.85;;;1.35;;
76801;SDS011;66403;50.832;10.950;2024-01-15T18:41:45;2.60;;;1.25;;
76801;SDS011;66403;50.832;10.950;2024-01-15T18:46:45;2.95;;;1.00;;
76801;SDS011;66403;50.832;10.950;2024-01-15T18:51:46;0.98;;;0.88;;
76801;SDS011;66403;50.832;10.950;2024-01-15T18:56:51;2.28;;;0.75;;
76801;SDS011;66403;50.832;10.950;2024-01-15T19:01:52;0.85;;;0.65;;
76801;SDS011;66403;50.832;10.950;2024-01-15T19:06:52;1.88;;;1.00;;
76801;SDS011;66403;50.832;10.950;2024-01-15T19:11:53;1.55;;;1.13;;
76801;SDS011;66403;50.832;10.950;2024-01-15T19:16:53;1.13;;;0.77;;
76801;SDS011;66403;50.832;10.950;2024-01-15T19:21:54;1.10;;;1.00;;
76801;SDS011;66403;50.832;10.950;2024-01-15T19:26:54;0.80;;;0.80;;
76801;SDS011;66403;50.832;10.950;2024-01-15T19:31:55;1.75;;;1.30;;
76801;SDS011;66403;50.832;10.950;2024-01-15T19:36:56;1.55;;;0.70;;
76801;SDS011;66403;50.832;10.950;2024-01-15T19:41:56;0.75;;;0.50;;
76801;SDS011;66403;50.832;10.950;2024-01-15T19:46:57;3.10;;;0.63;;
76801;SDS011;66403;50.832;10.950;2024-01-15T19:51:58;2.47;;;0.50;;
76801;SDS011;66403;50.832;10.950;2024-01-15T19:56:58;1.15;;;0.98;;
76801;SDS011;66403;50.832;10.950;2024-01-15T20:01:59;2.13;;;0.90;;
76801;SDS011;66403;50.832;10.950;2024-01-15T20:07:00;1.08;;;0.88;;
76801;SDS011;66403;50.832;10.950;2024-01-15T20:12:01;2.22;;;1.10;;
76801;SDS011;66403;50.832;10.950;2024-01-15T20:17:01;2.13;;;1.20;;
76801;SDS011;66403;50.832;10.950;2024-01-15T20:22:04;5.43;;;0.82;;
76801;SDS011;66403;50.832;10.950;2024-01-15T20:27:05;3.00;;;1.00;;
76801;SDS011;66403;50.832;10.950;2024-01-15T20:32:05;4.68;;;1.55;;
76801;SDS011;66403;50.832;10.950;2024-01-15T20:37:06;2.10;;;0.65;;
76801;SDS011;66403;50.832;10.950;2024-01-15T20:42:07;4.30;;;0.95;;
76801;SDS011;66403;50.832;10.950;2024-01-15T20:47:07;3.33;;;0.82;;
76801;SDS011;66403;50.832;10.950;2024-01-15T20:52:08;1.35;;;0.80;;
76801;SDS011;66403;50.832;10.950;2024-01-15T20:57:09;2.13;;;0.75;;
76801;SDS011;66403;50.832;10.950;2024-01-15T21:02:09;3.78;;;1.42;;
76801;SDS011;66403;50.832;10.950;2024-01-15T21:07:10;0.68;;;0.65;;
76801;SDS011;66403;50.832;10.950;2024-01-15T21:12:10;2.90;;;1.02;;
76801;SDS011;66403;50.832;10.950;2024-01-15T21:17:11;3.88;;;1.15;;
76801;SDS011;66403;50.832;10.950;2024-01-15T21:22:11;1.25;;;0.50;;
76801;SDS011;66403;50.832;10.950;2024-01-15T21:27:12;1.25;;;0.60;;
76801;SDS011;66403;50.832;10.950;2024-01-15T21:32:12;3.22;;;0.40;;
76801;SDS011;66403;50.832;10.950;2024-01-15T21:37:13;1.80;;;0.85;;
76801;SDS011;66403;50.832;10.950;2024-01-15T21:42:13;1.48;;;0.93;;
76801;SDS011;66403;50.832;10.950;2024-01-15T21:47:14;1.05;;;0.43;;
76801;SDS011;66403;50.832;10.950;2024-01-15T21:52:15;3.63;;;0.90;;
76801;SDS011;66403;50.832;10.950;2024-01-15T21:57:16;10.10;;;1.10;;
76801;SDS011;66403;50.832;10.950;2024-01-15T22:02:17;1.20;;;0.93;;
76801;SDS011;66403;50.832;10.950;2024-01-15T22:07:17;0.55;;;0.40;;
76801;SDS011;66403;50.832;10.950;2024-01-15T22:12:18;2.05;;;0.82;;
76801;SDS011;66403;50.832;10.950;2024-01-15T22:17:18;1.92;;;1.00;;
76801;SDS011;66403;50.832;10.950;2024-01-15T22:22:19;3.60;;;0.75;;
76801;SDS011;66403;50.832;10.950;2024-01-15T22:27:19;2.22;;;1.77;;
76801;SDS011;66403;50.832;10.950;2024-01-15T22:32:20;1.85;;;0.93;;
76801;SDS011;66403;50.832;10.950;2024-01-15T22:37:21;1.13;;;1.02;;
76801;SDS011;66403;50.832;10.950;2024-01-15T22:42:22;1.30;;;0.77;;
76801;SDS011;66403;50.832;10.950;2024-01-15T22:47:22;1.17;;;0.98;;
76801;SDS011;66403;50.832;10.950;2024-01-15T22:52:24;2.78;;;1.10;;
76801;SDS011;66403;50.832;10.950;2024-01-15T22:57:24;0.75;;;0.75;;
76801;SDS011;66403;50.832;10.950;2024-01-15T23:02:25;2.17;;;1.40;;
76801;SDS011;66403;50.832;10.950;2024-01-15T23:07:25;3.83;;;1.40;;
76801;SDS011;66403;50.832;10.950;2024-01-15T23:12:27;2.00;;;0.90;;
76801;SDS011;66403;50.832;10.950;2024-01-15T23:17:27;0.85;;;0.85;;
76801;SDS011;66403;50.832;10.950;2024-01-15T23:22:28;1.48;;;0.70;;
76801;SDS011;66403;50.832;10.950;2024-01-15T23:27:28;0.88;;;0.45;;
76801;SDS011;66403;50.832;10.950;2024-01-15T23:32:29;2.38;;;1.02;;
76801;SDS011;66403;50.832;10.950;2024-01-15T23:37:31;1.05;;;0.73;;
76801;SDS011;66403;50.832;10.950;2024-01-15T23:42:31;0.75;;;0.70;;
76801;SDS011;66403;50.832;10.950;2024-01-15T23:47:32;3.20;;;2.00;;
76801;SDS011;66403;50.832;10.950;2024-01-15T23:52:32;1.08;;;0.80;;
76801;SDS011;66403;50.832;10.950;2024-01-15T23:57:33;3.05;;;0.85;;
